createdAt,value
2019-05-13T00:00:18.186Z,10.00
2019-05-13T00:02:46.969Z,10.00
2019-05-13T00:05:15.766Z,9.90
2019-05-13T00:07:44.607Z,9.90
2019-05-13T00:10:14.794Z,9.90
2019-05-13T00:12:46.404Z,9.90
2019-05-13T00:15:15.539Z,9.80
2019-05-13T00:17:47.006Z,9.80
2019-05-13T00:20:18.455Z,9.80
2019-05-13T00:22:47.330Z,9.80
2019-05-13T00:25:16.121Z,9.80
2019-05-13T00:27:46.891Z,9.80
2019-05-13T00:30:15.739Z,9.80
2019-05-13T00:32:46.514Z,9.80
2019-05-13T00:35:15.311Z,9.80
2019-05-13T00:37:49.891Z,9.80
2019-05-13T00:40:19.638Z,9.70
2019-05-13T00:42:48.427Z,9.70
2019-05-13T00:45:17.278Z,9.70
2019-05-13T00:47:49.089Z,9.70
2019-05-13T00:50:20.463Z,9.70
2019-05-13T00:52:53.480Z,9.70
2019-05-13T00:55:24.712Z,9.60
2019-05-13T00:57:59.328Z,9.60
2019-05-13T01:00:28.102Z,9.60
2019-05-13T01:02:56.927Z,9.60
2019-05-13T01:05:33.722Z,9.60
2019-05-13T01:08:03.897Z,9.60
2019-05-13T01:10:34.576Z,9.50
2019-05-13T01:13:09.774Z,9.50
2019-05-13T01:15:38.563Z,9.50
2019-05-13T01:18:14.287Z,9.50
2019-05-13T01:20:46.079Z,9.50
2019-05-13T01:23:20.694Z,9.50
2019-05-13T01:25:49.502Z,9.50
2019-05-13T01:28:23.780Z,9.50
2019-05-13T01:30:53.784Z,9.50
2019-05-13T01:33:25.625Z,9.50
2019-05-13T01:35:54.431Z,9.40
2019-05-13T01:38:24.113Z,9.40
2019-05-13T01:40:53.898Z,9.40
2019-05-13T01:43:25.094Z,9.40
2019-05-13T01:45:53.889Z,9.40
2019-05-13T01:48:24.092Z,9.40
2019-05-13T01:50:53.435Z,9.40
2019-05-13T01:53:24.368Z,9.30
2019-05-13T01:55:55.542Z,9.30
2019-05-13T01:58:30.170Z,9.30
2019-05-13T02:01:01.602Z,9.30
2019-05-13T02:03:33.829Z,9.30
2019-05-13T02:06:03.789Z,9.30
2019-05-13T02:08:36.047Z,9.30
2019-05-13T02:11:13.162Z,9.20
2019-05-13T02:13:44.764Z,9.20
2019-05-13T02:16:19.618Z,9.20
2019-05-13T02:18:53.536Z,9.20
2019-05-13T02:21:24.317Z,9.20
2019-05-13T02:23:53.657Z,9.20
2019-05-13T02:26:24.058Z,9.10
2019-05-13T02:28:54.126Z,9.10
2019-05-13T02:31:39.518Z,9.10
2019-05-13T02:33:54.449Z,9.10
2019-05-13T02:36:32.666Z,9.10
2019-05-13T02:39:02.381Z,9.10
2019-05-13T02:41:34.121Z,9.10
2019-05-13T02:44:03.933Z,9.00
2019-05-13T02:46:33.756Z,9.00
2019-05-13T02:49:03.350Z,9.00
2019-05-13T02:51:32.945Z,9.00
2019-05-13T02:54:03.582Z,9.00
2019-05-13T02:56:34.953Z,8.90
2019-05-13T02:59:07.014Z,8.90
2019-05-13T03:01:43.226Z,8.90
2019-05-13T03:04:13.154Z,8.90
2019-05-13T03:06:44.847Z,8.90
2019-05-13T03:09:14.603Z,8.80
2019-05-13T03:11:43.428Z,8.90
2019-05-13T03:14:12.910Z,8.90
2019-05-13T03:16:43.571Z,8.90
2019-05-13T03:19:18.155Z,8.80
2019-05-13T03:21:46.931Z,8.80
2019-05-13T03:24:15.772Z,8.80
2019-05-13T03:26:47.194Z,8.80
2019-05-13T03:29:15.960Z,8.80
2019-05-13T03:31:46.787Z,8.70
2019-05-13T03:34:17.864Z,8.70
2019-05-13T03:36:47.340Z,8.70
2019-05-13T03:39:16.836Z,8.70
2019-05-13T03:41:48.635Z,8.60
2019-05-13T03:44:23.763Z,8.60
2019-05-13T03:46:54.509Z,8.60
2019-05-13T03:49:26.328Z,8.60
2019-05-13T03:51:57.803Z,8.60
2019-05-13T03:54:32.805Z,8.60
2019-05-13T03:57:04.078Z,8.50
2019-05-13T03:59:33.830Z,8.50
2019-05-13T04:02:05.262Z,8.50
2019-05-13T04:04:34.043Z,8.50
2019-05-13T04:07:03.188Z,8.50
2019-05-13T04:09:36.552Z,8.50
2019-05-13T04:12:03.625Z,8.50
2019-05-13T04:14:42.188Z,8.50
2019-05-13T04:17:12.519Z,8.50
2019-05-13T04:19:43.618Z,8.50
2019-05-13T04:22:13.124Z,8.50
2019-05-13T04:24:42.856Z,8.50
2019-05-13T04:27:13.246Z,8.50
2019-05-13T04:29:43.258Z,8.50
2019-05-13T04:32:12.900Z,8.50
2019-05-13T04:34:42.580Z,8.50
2019-05-13T04:37:13.427Z,8.50
2019-05-13T04:39:51.028Z,8.60
2019-05-13T04:42:12.951Z,8.60
2019-05-13T04:44:44.569Z,8.60
2019-05-13T04:47:19.109Z,8.60
2019-05-13T04:49:53.733Z,8.60
2019-05-13T04:52:22.708Z,8.60
2019-05-13T04:54:52.812Z,8.70
2019-05-13T04:57:22.681Z,8.70
2019-05-13T04:59:54.884Z,8.70
2019-05-13T05:02:58.722Z,8.70
2019-05-13T05:05:42.013Z,8.80
2019-05-13T05:08:47.950Z,8.80
2019-05-13T05:11:42.660Z,8.80
2019-05-13T05:14:32.347Z,8.80
2019-05-13T05:17:32.608Z,8.90
2019-05-13T05:20:03.898Z,8.90
2019-05-13T05:22:52.501Z,8.90
2019-05-13T05:25:32.009Z,9.00
2019-05-13T05:28:29.139Z,9.00
2019-05-13T05:31:17.105Z,9.00
2019-05-13T05:34:11.586Z,9.10
2019-05-13T05:37:01.617Z,9.10
2019-05-13T05:39:33.018Z,9.20
2019-05-13T05:42:02.330Z,9.20
2019-05-13T05:44:32.609Z,9.20
2019-05-13T05:47:03.319Z,9.30
2019-05-13T05:49:32.313Z,9.30
2019-05-13T05:52:04.335Z,9.40
2019-05-13T05:54:42.056Z,9.40
2019-05-13T05:57:13.671Z,9.50
2019-05-13T05:59:42.855Z,9.50
2019-05-13T06:02:12.298Z,9.60
2019-05-13T06:04:43.076Z,9.70
2019-05-13T06:07:17.562Z,9.70
2019-05-13T06:09:46.407Z,9.80
2019-05-13T06:12:15.617Z,9.90
2019-05-13T06:14:44.719Z,10.00
2019-05-13T06:17:13.555Z,10.10
2019-05-13T06:19:42.434Z,10.20
2019-05-13T06:22:12.315Z,10.30
2019-05-13T06:24:42.183Z,10.40
2019-05-13T06:27:17.004Z,10.40
2019-05-13T06:29:49.045Z,10.50
2019-05-13T06:32:22.437Z,10.60
2019-05-13T06:34:47.109Z,10.70
2019-05-13T06:37:15.960Z,10.80
2019-05-13T06:39:51.262Z,10.90
2019-05-13T06:42:22.223Z,11.00
2019-05-13T06:44:53.783Z,11.10
2019-05-13T06:47:28.550Z,11.20
2019-05-13T06:49:57.433Z,11.30
2019-05-13T06:52:26.351Z,11.40
2019-05-13T06:54:55.220Z,11.50
2019-05-13T06:57:24.015Z,11.60
2019-05-13T06:59:52.841Z,11.80
2019-05-13T07:02:21.776Z,11.90
2019-05-13T07:04:51.616Z,12.00
2019-05-13T07:07:26.482Z,12.20
2019-05-13T07:10:02.566Z,12.30
2019-05-13T07:12:31.654Z,12.40
2019-05-13T07:15:04.793Z,12.50
2019-05-13T07:17:33.575Z,12.60
2019-05-13T07:20:08.548Z,12.80
2019-05-13T07:22:44.758Z,13.00
2019-05-13T07:25:14.015Z,13.20
2019-05-13T07:27:47.058Z,13.40
2019-05-13T07:30:20.814Z,13.40
2019-05-13T07:32:49.242Z,13.40
2019-05-13T07:35:18.047Z,13.60
2019-05-13T07:37:46.934Z,13.80
2019-05-13T07:40:16.039Z,14.00
2019-05-13T07:42:44.803Z,14.10
2019-05-13T07:45:13.670Z,14.20
2019-05-13T07:47:45.061Z,14.20
2019-05-13T07:50:13.849Z,14.30
2019-05-13T07:52:43.171Z,14.40
2019-05-13T07:55:16.080Z,14.60
2019-05-13T07:57:51.482Z,14.80
2019-05-13T08:00:21.878Z,15.00
2019-05-13T08:02:52.354Z,15.10
2019-05-13T08:05:22.363Z,15.30
2019-05-13T08:07:57.213Z,15.40
2019-05-13T08:10:27.042Z,15.50
2019-05-13T08:13:02.345Z,15.60
2019-05-13T08:15:32.386Z,15.70
2019-05-13T08:18:02.049Z,15.90
2019-05-13T08:20:32.772Z,16.00
2019-05-13T08:23:02.629Z,16.20
2019-05-13T08:25:31.685Z,16.30
2019-05-13T08:28:02.070Z,16.40
2019-05-13T08:30:31.845Z,16.40
2019-05-13T08:33:01.772Z,16.60
2019-05-13T08:35:32.783Z,16.80
2019-05-13T08:38:01.615Z,17.10
2019-05-13T08:40:32.404Z,17.20
2019-05-13T08:43:01.437Z,17.40
2019-05-13T08:45:31.486Z,17.50
2019-05-13T08:48:02.064Z,17.60
2019-05-13T08:50:36.990Z,17.80
2019-05-13T08:53:05.754Z,17.90
2019-05-13T08:55:35.476Z,18.00
2019-05-13T08:58:04.363Z,18.30
2019-05-13T09:00:53.410Z,18.50
2019-05-13T09:03:23.603Z,18.60
2019-05-13T09:05:54.989Z,18.80
2019-05-13T09:08:25.119Z,18.90
2019-05-13T09:10:56.737Z,19.00
2019-05-13T09:13:27.006Z,19.00
2019-05-13T09:15:55.781Z,19.00
2019-05-13T09:18:24.629Z,19.00
2019-05-13T09:20:56.031Z,19.00
2019-05-13T09:23:24.820Z,19.00
2019-05-13T09:25:54.666Z,19.10
2019-05-13T09:28:25.451Z,19.20
2019-05-13T09:30:54.242Z,19.40
2019-05-13T09:33:23.122Z,19.40
2019-05-13T09:35:53.540Z,19.40
2019-05-13T09:38:22.440Z,19.40
2019-05-13T09:40:57.173Z,19.50
2019-05-13T09:43:25.962Z,19.50
2019-05-13T09:45:54.794Z,19.60
2019-05-13T09:48:25.659Z,19.80
2019-05-13T09:51:02.379Z,19.90
2019-05-13T09:53:32.524Z,20.00
2019-05-13T09:56:02.390Z,20.20
2019-05-13T09:58:33.122Z,20.10
2019-05-13T10:01:01.936Z,20.10
2019-05-13T10:03:33.097Z,20.20
2019-05-13T10:06:04.668Z,20.50
2019-05-13T10:08:36.739Z,20.70
2019-05-13T10:11:12.320Z,20.80
2019-05-13T10:13:41.340Z,20.90
2019-05-13T10:16:12.453Z,21.00
2019-05-13T10:18:46.360Z,21.10
2019-05-13T10:21:15.151Z,21.10
2019-05-13T10:23:44.019Z,21.20
2019-05-13T10:26:14.396Z,21.30
2019-05-13T10:28:49.603Z,21.40
2019-05-13T10:31:24.274Z,21.60
2019-05-13T10:33:55.694Z,21.50
2019-05-13T10:36:24.489Z,21.60
2019-05-13T10:38:53.340Z,21.60
2019-05-13T10:41:22.374Z,21.70
2019-05-13T10:43:52.135Z,21.70
2019-05-13T10:46:22.083Z,21.80
2019-05-13T10:48:52.634Z,21.80
2019-05-13T10:51:22.292Z,21.90
2019-05-13T10:53:53.606Z,21.70
2019-05-13T10:56:23.889Z,21.50
2019-05-13T10:58:53.448Z,21.40
2019-05-13T11:01:24.511Z,21.20
2019-05-13T11:03:53.312Z,21.00
2019-05-13T11:06:22.179Z,20.90
2019-05-13T11:08:53.161Z,20.90
2019-05-13T11:11:22.943Z,20.70
2019-05-13T11:14:06.712Z,20.60
2019-05-13T11:16:29.162Z,20.50
2019-05-13T11:18:58.011Z,20.50
2019-05-13T11:21:27.915Z,20.20
2019-05-13T11:23:57.679Z,20.10
2019-05-13T11:26:26.476Z,20.00
2019-05-13T11:28:55.295Z,19.80
2019-05-13T11:31:25.038Z,19.70
2019-05-13T11:34:01.857Z,19.60
2019-05-13T11:36:33.442Z,19.60
2019-05-13T11:39:02.936Z,19.50
2019-05-13T11:41:36.807Z,19.50
2019-05-13T11:44:14.189Z,19.50
2019-05-13T11:46:36.083Z,19.20
2019-05-13T11:49:05.868Z,19.00
2019-05-13T11:51:37.742Z,18.90
2019-05-13T11:54:06.722Z,19.00
2019-05-13T11:56:46.320Z,19.00
2019-05-13T11:59:14.011Z,18.90
2019-05-13T12:01:43.796Z,18.90
2019-05-13T12:04:12.596Z,18.80
2019-05-13T12:06:48.655Z,18.80
2019-05-13T12:09:13.041Z,18.60
2019-05-13T12:11:45.290Z,18.50
2019-05-13T12:14:37.331Z,18.50
2019-05-13T12:16:44.547Z,18.50
2019-05-13T12:19:14.339Z,18.50
2019-05-13T12:21:46.465Z,18.50
2019-05-13T12:24:13.591Z,18.50
2019-05-13T12:26:43.426Z,18.40
2019-05-13T12:29:19.014Z,18.30
2019-05-13T12:31:45.078Z,18.20
2019-05-13T12:34:22.129Z,18.10
2019-05-13T12:36:50.415Z,18.10
2019-05-13T12:39:23.768Z,18.00
2019-05-13T12:41:53.857Z,17.90
2019-05-13T12:44:23.078Z,17.80
2019-05-13T12:46:54.225Z,17.70
2019-05-13T12:49:22.837Z,17.70
2019-05-13T12:51:51.867Z,17.70
2019-05-13T12:54:23.364Z,17.70
2019-05-13T12:56:52.472Z,17.70
2019-05-13T12:59:22.366Z,17.60
2019-05-13T13:01:57.665Z,17.40
2019-05-13T13:04:33.481Z,17.30
2019-05-13T13:07:08.443Z,17.30
2019-05-13T13:09:38.265Z,17.20
2019-05-13T13:12:12.955Z,17.20
2019-05-13T13:14:44.418Z,17.30
2019-05-13T13:17:18.026Z,17.20
2019-05-13T13:19:53.452Z,17.20
2019-05-13T13:22:24.584Z,17.20
2019-05-13T13:24:52.980Z,17.20
2019-05-13T13:27:37.829Z,17.20
2019-05-13T13:30:02.430Z,17.10
2019-05-13T13:32:25.339Z,17.00
2019-05-13T13:34:55.106Z,16.90
2019-05-13T13:37:24.358Z,16.90
2019-05-13T13:39:55.162Z,16.90
2019-05-13T13:42:23.635Z,16.90
2019-05-13T13:47:25.558Z,16.80
2019-05-13T13:49:57.430Z,16.60
2019-05-13T13:52:26.219Z,16.60
2019-05-13T13:55:02.984Z,16.60
2019-05-13T13:57:28.582Z,16.50
2019-05-13T14:00:21.033Z,16.50
2019-05-13T14:02:27.953Z,16.50
2019-05-13T14:05:04.875Z,16.40
2019-05-13T14:07:13.241Z,16.80
2019-05-13T14:07:37.937Z,16.40
2019-05-13T14:10:06.772Z,16.40
2019-05-13T14:12:35.664Z,16.40
2019-05-13T14:15:10.380Z,16.20
2019-05-13T14:17:39.166Z,16.20
2019-05-13T14:20:08.662Z,16.20
2019-05-13T14:22:37.499Z,16.20
2019-05-13T14:25:11.358Z,16.20
2019-05-13T14:27:42.034Z,16.20
2019-05-13T14:30:14.277Z,16.20
2019-05-13T14:32:51.694Z,16.20
2019-05-13T14:35:25.169Z,16.10
2019-05-13T14:37:53.981Z,16.00
2019-05-13T14:40:23.770Z,16.00
2019-05-13T14:42:52.798Z,16.00
2019-05-13T14:45:23.854Z,15.90
2019-05-13T14:47:55.350Z,15.90
2019-05-13T14:50:24.138Z,15.90
2019-05-13T14:52:52.990Z,15.80
2019-05-13T14:55:24.464Z,15.90
2019-05-13T14:57:53.298Z,15.90
2019-05-13T15:00:22.759Z,15.90
2019-05-13T15:02:57.259Z,15.90
2019-05-13T15:05:28.691Z,15.80
2019-05-13T15:07:58.454Z,15.80
2019-05-13T15:10:27.244Z,15.70
2019-05-13T15:12:56.380Z,15.60
2019-05-13T15:15:25.158Z,15.60
2019-05-13T15:17:56.588Z,15.60
2019-05-13T15:20:25.432Z,15.50
2019-05-13T15:22:55.170Z,15.50
2019-05-13T15:25:24.001Z,15.40
2019-05-13T15:27:53.939Z,15.40
2019-05-13T15:30:28.542Z,15.40
2019-05-13T15:33:03.368Z,15.30
2019-05-13T15:35:35.214Z,15.30
2019-05-13T15:38:04.000Z,15.20
2019-05-13T15:40:32.847Z,15.20
2019-05-13T15:43:02.426Z,15.20
2019-05-13T15:45:31.978Z,15.10
2019-05-13T15:48:03.487Z,15.10
2019-05-13T15:50:33.251Z,15.10
2019-05-13T15:53:02.877Z,15.10
2019-05-13T15:55:32.007Z,15.00
2019-05-13T15:58:03.814Z,15.00
2019-05-13T16:00:34.583Z,15.00
2019-05-13T16:03:06.069Z,14.90
2019-05-13T16:05:42.321Z,15.00
2019-05-13T16:08:12.146Z,14.90
2019-05-13T16:10:43.833Z,14.80
2019-05-13T16:13:12.626Z,14.80
2019-05-13T16:15:41.746Z,14.70
2019-05-13T16:18:11.672Z,14.60
2019-05-13T16:20:44.468Z,14.70
2019-05-13T16:23:12.426Z,14.60
2019-05-13T16:25:41.808Z,14.60
2019-05-13T16:28:10.771Z,14.60
2019-05-13T16:30:41.909Z,14.50
2019-05-13T16:33:13.061Z,14.50
2019-05-13T16:35:45.038Z,14.40
2019-05-13T16:38:13.835Z,14.40
2019-05-13T16:40:42.610Z,14.40
2019-05-13T16:43:12.882Z,14.50
2019-05-13T16:45:47.575Z,14.50
2019-05-13T16:48:22.128Z,14.50
2019-05-13T16:50:50.911Z,14.50
2019-05-13T16:53:23.339Z,14.50
2019-05-13T16:55:52.162Z,14.50
2019-05-13T16:58:25.116Z,14.40
2019-05-13T17:00:57.701Z,14.40
2019-05-13T17:03:26.595Z,14.40
2019-05-13T17:05:58.523Z,14.40
2019-05-13T17:08:27.371Z,14.30
2019-05-13T17:10:58.162Z,14.40
2019-05-13T17:13:26.943Z,14.30
2019-05-13T17:15:55.774Z,14.30
2019-05-13T17:18:24.631Z,14.30
2019-05-13T17:20:53.471Z,14.30
2019-05-13T17:23:22.267Z,14.20
2019-05-13T17:25:53.650Z,14.20
2019-05-13T17:28:22.448Z,14.20
2019-05-13T17:30:51.938Z,14.10
2019-05-13T17:33:22.971Z,14.10
2019-05-13T17:35:52.281Z,14.00
2019-05-13T17:38:21.826Z,14.00
2019-05-13T17:40:52.975Z,14.00
2019-05-13T17:43:27.120Z,14.00
2019-05-13T17:46:01.791Z,13.90
2019-05-13T17:48:32.983Z,13.90
2019-05-13T17:51:01.490Z,13.80
2019-05-13T17:53:32.517Z,13.80
2019-05-13T17:56:02.403Z,13.80
2019-05-13T17:58:31.514Z,13.70
2019-05-13T18:01:03.693Z,13.70
2019-05-13T18:03:32.513Z,13.70
2019-05-13T18:06:02.317Z,13.70
2019-05-13T18:08:37.329Z,13.60
2019-05-13T18:11:06.183Z,13.60
2019-05-13T18:13:35.947Z,13.50
2019-05-13T18:16:04.742Z,13.50
2019-05-13T18:18:43.068Z,13.40
2019-05-13T18:21:04.058Z,13.40
2019-05-13T18:23:32.857Z,13.30
2019-05-13T18:26:02.116Z,13.20
2019-05-13T18:28:33.704Z,13.20
2019-05-13T18:31:02.491Z,13.10
2019-05-13T18:33:31.898Z,13.10
2019-05-13T18:36:01.975Z,13.00
2019-05-13T18:38:31.360Z,13.00
2019-05-13T18:41:01.725Z,12.90
2019-05-13T18:43:36.785Z,12.90
2019-05-13T18:46:05.702Z,12.90
2019-05-13T18:48:34.487Z,12.90
2019-05-13T18:51:06.304Z,12.80
2019-05-13T18:53:35.145Z,12.80
2019-05-13T18:56:12.268Z,12.70
2019-05-13T18:58:46.322Z,12.70
2019-05-13T19:01:15.236Z,12.60
2019-05-13T19:03:49.775Z,12.60
2019-05-13T19:06:22.368Z,12.60
2019-05-13T19:08:53.017Z,12.60
2019-05-13T19:11:22.243Z,12.60
2019-05-13T19:13:52.145Z,12.50
2019-05-13T19:16:23.800Z,12.50
2019-05-13T19:18:52.586Z,12.40
2019-05-13T19:21:22.431Z,12.40
2019-05-13T19:23:53.842Z,12.40
2019-05-13T19:26:22.630Z,12.30
2019-05-13T19:28:51.732Z,12.30
2019-05-13T19:31:23.370Z,12.30
2019-05-13T19:33:52.187Z,12.30
2019-05-13T19:36:21.147Z,12.20
2019-05-13T19:38:55.818Z,12.20
2019-05-13T19:41:24.966Z,12.20
2019-05-13T19:43:53.886Z,12.20
2019-05-13T19:46:25.614Z,12.20
2019-05-13T19:48:53.343Z,12.20
2019-05-13T19:51:32.097Z,12.20
2019-05-13T19:54:01.320Z,12.20
2019-05-13T19:56:31.890Z,12.20
2019-05-13T19:59:03.965Z,12.20
2019-05-13T20:01:36.122Z,12.10
2019-05-13T20:04:11.159Z,12.10
2019-05-13T20:06:43.120Z,12.10
2019-05-13T20:09:14.572Z,12.10
2019-05-13T20:11:55.046Z,12.10
2019-05-13T20:14:22.204Z,12.10
2019-05-13T20:16:52.433Z,12.10
2019-05-13T20:19:27.231Z,12.10
2019-05-13T20:21:56.990Z,12.10
2019-05-13T20:24:25.777Z,12.10
2019-05-13T20:26:54.834Z,12.10
2019-05-13T20:29:23.590Z,12.10
2019-05-13T20:31:58.442Z,12.10
2019-05-13T20:34:28.202Z,12.10
2019-05-13T20:37:03.085Z,12.10
2019-05-13T20:39:32.139Z,12.10
2019-05-13T20:42:01.785Z,12.10
2019-05-13T20:44:31.453Z,12.10
2019-05-13T20:47:01.632Z,12.10
2019-05-13T20:49:31.296Z,12.10
2019-05-13T20:52:00.529Z,12.00
2019-05-13T20:54:31.583Z,12.10
2019-05-13T20:57:03.536Z,12.00
2019-05-13T20:59:35.427Z,12.00
2019-05-13T21:02:04.281Z,12.00
2019-05-13T21:04:34.292Z,12.00
2019-05-13T21:07:04.219Z,12.00
2019-05-13T21:09:36.175Z,12.00
2019-05-13T21:12:12.095Z,12.00
2019-05-13T21:14:43.781Z,12.00
2019-05-13T21:17:18.610Z,12.00
2019-05-13T21:19:52.678Z,12.00
2019-05-13T21:22:21.244Z,12.00
2019-05-13T21:24:56.246Z,11.90
2019-05-13T21:27:27.586Z,11.90
2019-05-13T21:29:56.477Z,11.90
2019-05-13T21:32:28.441Z,11.90
2019-05-13T21:35:06.135Z,11.90
2019-05-13T21:37:40.760Z,11.90
2019-05-13T21:40:13.897Z,11.90
2019-05-13T21:42:42.842Z,11.90
2019-05-13T21:45:14.190Z,11.90
2019-05-13T21:47:44.108Z,11.80
2019-05-13T21:50:31.122Z,11.80
2019-05-13T21:52:51.461Z,11.80
2019-05-13T21:55:21.676Z,11.80
2019-05-13T21:57:53.049Z,11.80
2019-05-13T22:00:25.864Z,11.80
2019-05-13T22:02:56.903Z,11.70
2019-05-13T22:05:31.631Z,11.70
2019-05-13T22:08:01.766Z,11.70
2019-05-13T22:10:31.140Z,11.70
2019-05-13T22:13:02.762Z,11.70
2019-05-13T22:15:32.265Z,11.70
2019-05-13T22:18:07.123Z,11.70
2019-05-13T22:20:50.025Z,11.70
2019-05-13T22:23:12.398Z,11.60
2019-05-13T22:25:47.171Z,11.60
2019-05-13T22:28:18.567Z,11.60
2019-05-13T22:30:48.331Z,11.60
2019-05-13T22:33:17.277Z,11.60
2019-05-13T22:35:47.090Z,11.60
2019-05-13T22:38:21.715Z,11.60
2019-05-13T22:40:56.340Z,11.50
2019-05-13T22:43:25.338Z,11.60
2019-05-13T22:45:56.885Z,11.50
2019-05-13T22:48:31.874Z,11.50
2019-05-13T22:51:03.679Z,11.50
2019-05-13T22:53:32.670Z,11.50
2019-05-13T22:56:07.295Z,11.50
2019-05-13T22:58:41.921Z,11.60
2019-05-13T23:01:13.371Z,11.50
2019-05-13T23:03:46.359Z,11.50
2019-05-13T23:06:21.616Z,11.50
2019-05-13T23:08:50.999Z,11.50
2019-05-13T23:11:25.607Z,11.50
2019-05-13T23:14:06.517Z,11.40
2019-05-13T23:16:25.045Z,11.40
2019-05-13T23:18:54.864Z,11.40
2019-05-13T23:21:31.291Z,11.40
2019-05-13T23:24:07.386Z,11.30
2019-05-13T23:26:42.473Z,11.30
2019-05-13T23:29:14.074Z,11.30
2019-05-13T23:31:45.501Z,11.30
2019-05-13T23:34:17.177Z,11.30
2019-05-13T23:36:48.629Z,11.30
2019-05-13T23:39:23.362Z,11.20
2019-05-13T23:41:57.980Z,11.20
2019-05-13T23:44:32.708Z,11.20
2019-05-13T23:47:04.157Z,11.20
2019-05-13T23:49:35.585Z,11.20
2019-05-13T23:52:05.636Z,11.10
2019-05-13T23:54:42.328Z,11.10
2019-05-13T23:57:14.059Z,11.10
2019-05-13T23:59:46.329Z,11.00
